Terminal Aerodrome Forecast
Issued by NWS Paducah, KY

Home | Current Version | Previous Version | Text Only | Print | Product List | Glossary On
Versions: 1 2 3 4 5 6 7 8 9 10 11 12 13 14 15
000
FTUS43 KPAH 141700
TAFEVV
TAF
KEVV 141725Z 1418/1518 31010G20KT 6SM -RADZ BR OVC015
      TEMPO 1418/1422 3SM -RADZ BR OVC008
     FM142200 32013G23KT 4SM -RA BR OVC010
     FM150500 32010G20KT P6SM BKN025
     FM151100 32010KT P6SM SKC=

USA.gov is the U.S. government's official web portal to all federal, state and local government web resources and services.